createdAt,value
2023-01-20T00:01:37.838Z,77.30
2023-01-20T00:04:06.382Z,82.60
2023-01-20T00:06:34.361Z,80.60
2023-01-20T00:09:04.715Z,89.90
2023-01-20T00:11:33.204Z,82.50
2023-01-20T00:14:02.538Z,85.50
2023-01-20T00:16:32.038Z,84.30
2023-01-20T00:19:00.671Z,81.50
2023-01-20T00:21:29.076Z,86.50
2023-01-20T00:23:57.110Z,81.00
2023-01-20T00:26:25.908Z,86.10
2023-01-20T00:28:56.185Z,83.10
2023-01-20T00:31:28.764Z,78.40
2023-01-20T00:33:59.000Z,91.30
2023-01-20T00:36:28.975Z,82.60
2023-01-20T00:38:57.975Z,82.60
2023-01-20T00:41:26.048Z,82.90
2023-01-20T00:43:54.119Z,80.40
2023-01-20T00:46:23.225Z,84.30
2023-01-20T00:48:51.310Z,90.20
2023-01-20T00:51:19.624Z,89.50
2023-01-20T00:53:47.975Z,86.00
2023-01-20T00:56:15.843Z,93.00
2023-01-20T00:58:44.510Z,89.50
2023-01-20T01:01:13.062Z,84.00
2023-01-20T01:03:41.318Z,89.90
2023-01-20T01:06:18.445Z,96.50
2023-01-20T01:08:46.461Z,87.90
2023-01-20T01:11:14.867Z,89.50
2023-01-20T01:13:43.211Z,85.80
2023-01-20T01:16:15.820Z,87.50
2023-01-20T01:18:44.307Z,90.30
2023-01-20T01:21:15.125Z,95.60
2023-01-20T01:23:43.741Z,84.90
2023-01-20T01:26:12.631Z,85.10
2023-01-20T01:28:40.865Z,88.20
2023-01-20T01:31:10.233Z,86.20
2023-01-20T01:33:38.607Z,88.60
2023-01-20T01:36:08.710Z,89.80
2023-01-20T01:38:36.747Z,85.80
2023-01-20T01:41:04.940Z,89.90
2023-01-20T01:43:36.686Z,93.30
2023-01-20T01:46:06.000Z,91.50
2023-01-20T01:48:38.657Z,85.80
2023-01-20T01:51:18.542Z,93.50
2023-01-20T01:53:53.857Z,98.30
2023-01-20T01:56:23.877Z,94.30
2023-01-20T01:58:56.728Z,98.20
2023-01-20T02:01:26.498Z,101.90
2023-01-20T02:04:24.062Z,102.10
2023-01-20T02:06:59.067Z,103.40
2023-01-20T02:09:27.543Z,97.90
2023-01-20T02:12:02.496Z,104.80
2023-01-20T02:14:43.937Z,104.80
2023-01-20T02:17:26.027Z,76.00
2023-01-20T02:20:12.792Z,95.30
2023-01-20T02:23:19.050Z,103.30
2023-01-20T02:26:05.749Z,95.70
2023-01-20T02:28:52.113Z,93.00
2023-01-20T02:31:31.922Z,93.80
2023-01-20T02:34:20.742Z,97.80
2023-01-20T02:36:55.375Z,87.00
2023-01-20T02:39:31.107Z,93.30
2023-01-20T02:42:08.301Z,90.40
2023-01-20T02:44:44.900Z,89.60
2023-01-20T02:47:20.869Z,85.70
2023-01-20T02:50:04.893Z,77.20
2023-01-20T02:52:37.361Z,80.00
2023-01-20T02:55:10.864Z,84.30
2023-01-20T02:57:50.561Z,76.60
2023-01-20T03:00:25.882Z,76.90
2023-01-20T03:02:57.543Z,87.40
2023-01-20T03:05:31.851Z,80.90
2023-01-20T03:08:04.256Z,83.10
2023-01-20T03:10:35.232Z,81.70
2023-01-20T03:13:13.806Z,79.20
2023-01-20T03:16:02.874Z,76.20
2023-01-20T03:18:33.885Z,71.20
2023-01-20T03:21:03.448Z,85.30
2023-01-20T03:23:35.263Z,79.00
2023-01-20T03:26:07.591Z,86.50
2023-01-20T03:28:35.702Z,77.30
2023-01-20T03:31:13.624Z,92.20
2023-01-20T03:33:43.224Z,89.80
2023-01-20T03:36:12.480Z,85.00
2023-01-20T03:38:40.412Z,90.40
2023-01-20T03:41:44.931Z,98.90
2023-01-20T03:44:50.495Z,97.20
2023-01-20T03:47:33.137Z,85.00
2023-01-20T03:50:06.968Z,86.50
2023-01-20T03:52:47.161Z,90.90
2023-01-20T03:55:20.729Z,89.00
2023-01-20T03:57:58.583Z,89.80
2023-01-20T04:05:11.345Z,78.40
2023-01-20T04:07:40.545Z,82.80
2023-01-20T04:10:12.929Z,92.80
2023-01-20T04:12:40.943Z,94.50
2023-01-20T04:15:10.775Z,96.00
2023-01-20T04:17:38.726Z,84.30
2023-01-20T04:20:10.451Z,98.10
2023-01-20T04:22:49.126Z,89.70
2023-01-20T04:25:30.197Z,90.70
2023-01-20T04:27:58.415Z,89.90
2023-01-20T04:34:40.010Z,94.40
2023-01-20T04:37:08.262Z,99.20
2023-01-20T04:39:36.157Z,113.00
2023-01-20T04:42:04.948Z,107.00
2023-01-20T04:44:32.977Z,105.60
2023-01-20T04:47:01.024Z,101.00
2023-01-20T04:49:28.994Z,111.30
2023-01-20T04:51:56.770Z,101.10
2023-01-20T04:54:24.603Z,89.50
2023-01-20T04:56:52.563Z,95.50
2023-01-20T04:59:20.437Z,100.60
2023-01-20T05:01:48.493Z,111.70
2023-01-20T05:04:16.385Z,103.20
2023-01-20T05:06:45.080Z,102.20
2023-01-20T05:09:15.509Z,97.40
2023-01-20T05:11:44.138Z,104.60
2023-01-20T05:14:13.032Z,107.10
2023-01-20T05:16:41.026Z,106.70
2023-01-20T05:19:24.172Z,95.50
2023-01-20T05:22:03.964Z,96.10
2023-01-20T05:24:31.900Z,95.50
2023-01-20T05:27:01.869Z,105.90
2023-01-20T05:29:30.391Z,126.80
2023-01-20T05:31:58.257Z,133.00
2023-01-20T05:34:26.086Z,142.90
2023-01-20T05:36:54.905Z,131.10
2023-01-20T05:39:22.953Z,147.20
2023-01-20T05:41:51.014Z,141.20
2023-01-20T05:44:19.506Z,143.00
2023-01-20T05:46:47.471Z,146.20
2023-01-20T05:49:15.393Z,156.10
2023-01-20T05:51:43.380Z,147.90
2023-01-20T05:54:11.345Z,140.00
2023-01-20T05:56:39.568Z,154.90
2023-01-20T05:59:08.161Z,155.50
2023-01-20T06:01:36.461Z,158.60
2023-01-20T06:04:04.602Z,154.10
2023-01-20T06:06:32.776Z,146.40
2023-01-20T06:09:00.939Z,160.00
2023-01-20T06:11:29.022Z,155.30
2023-01-20T06:13:56.869Z,167.00
2023-01-20T06:16:24.766Z,174.40
2023-01-20T06:18:52.756Z,166.90
2023-01-20T06:21:20.818Z,168.00
2023-01-20T06:23:48.659Z,161.00
2023-01-20T06:26:16.805Z,165.00
2023-01-20T06:28:44.915Z,159.50
2023-01-20T06:31:15.805Z,159.60
2023-01-20T06:33:43.816Z,161.90
2023-01-20T06:36:14.020Z,146.00
2023-01-20T06:38:42.055Z,156.20
2023-01-20T06:41:11.254Z,160.60
2023-01-20T06:43:40.349Z,164.20
2023-01-20T06:46:12.337Z,172.80
2023-01-20T06:48:41.228Z,168.60
2023-01-20T06:51:14.938Z,161.40
2023-01-20T06:53:43.441Z,158.90
2023-01-20T06:56:15.535Z,157.90
2023-01-20T06:58:43.777Z,150.90
2023-01-20T07:01:15.196Z,145.90
2023-01-20T07:03:46.102Z,149.80
2023-01-20T07:06:16.193Z,151.80
2023-01-20T07:08:45.590Z,151.30
2023-01-20T07:11:13.518Z,152.70
2023-01-20T07:13:41.613Z,141.90
2023-01-20T07:16:11.579Z,153.90
2023-01-20T07:18:41.516Z,156.80
2023-01-20T07:21:11.706Z,155.80
2023-01-20T07:23:39.972Z,157.10
2023-01-20T07:26:10.521Z,151.00
2023-01-20T07:28:38.596Z,145.80
2023-01-20T07:31:14.940Z,157.60
2023-01-20T07:33:43.344Z,151.90
2023-01-20T07:36:12.763Z,151.30
2023-01-20T07:38:41.340Z,141.40
2023-01-20T07:41:20.357Z,152.40
2023-01-20T07:43:50.571Z,153.90
2023-01-20T07:46:19.681Z,148.20
2023-01-20T07:48:47.699Z,168.70
2023-01-20T07:51:16.776Z,152.80
2023-01-20T07:53:47.377Z,160.70
2023-01-20T07:56:25.011Z,154.00
2023-01-20T07:58:54.799Z,155.60
2023-01-20T08:01:28.075Z,152.20
2023-01-20T08:03:57.343Z,148.00
2023-01-20T08:06:26.787Z,151.20
2023-01-20T08:08:57.679Z,161.80
2023-01-20T08:11:26.935Z,150.30
2023-01-20T08:13:55.067Z,156.20
2023-01-20T08:16:23.219Z,142.00
2023-01-20T08:18:53.896Z,143.70
2023-01-20T08:21:24.846Z,147.30
2023-01-20T08:23:55.541Z,138.90
2023-01-20T08:26:28.357Z,145.40
2023-01-20T08:29:06.856Z,159.70
2023-01-20T08:31:35.686Z,154.40
2023-01-20T08:34:03.802Z,143.10
2023-01-20T08:36:34.917Z,144.20
2023-01-20T08:39:06.237Z,145.40
2023-01-20T08:41:37.213Z,145.60
2023-01-20T08:44:07.770Z,139.00
2023-01-20T08:46:39.849Z,149.80
2023-01-20T08:49:12.927Z,136.80
2023-01-20T08:51:42.366Z,145.50
2023-01-20T08:54:10.562Z,150.30
2023-01-20T08:56:38.735Z,131.60
2023-01-20T08:59:07.294Z,145.70
2023-01-20T09:01:38.525Z,141.30
2023-01-20T09:04:07.673Z,139.00
2023-01-20T09:06:45.099Z,153.90
2023-01-20T09:09:15.088Z,121.60
2023-01-20T09:11:50.459Z,139.30
2023-01-20T09:14:23.561Z,148.80
2023-01-20T09:16:51.599Z,130.60
2023-01-20T09:19:19.552Z,129.40
2023-01-20T09:21:47.447Z,137.50
2023-01-20T09:24:15.462Z,150.10
2023-01-20T09:26:43.450Z,122.80
2023-01-20T09:29:13.522Z,132.60
2023-01-20T09:31:59.598Z,137.10
2023-01-20T09:34:29.473Z,132.70
2023-01-20T09:37:19.641Z,136.40
2023-01-20T09:40:06.860Z,134.60
2023-01-20T09:43:08.508Z,127.90
2023-01-20T09:45:44.580Z,130.20
2023-01-20T09:48:34.015Z,136.30
2023-01-20T09:51:30.473Z,126.00
2023-01-20T09:54:14.292Z,122.30
2023-01-20T09:56:47.963Z,117.80
2023-01-20T09:59:25.204Z,122.80
2023-01-20T10:01:57.812Z,138.50
2023-01-20T10:04:50.028Z,133.90
2023-01-20T10:07:29.823Z,119.70
2023-01-20T10:10:09.535Z,109.10
2023-01-20T10:13:21.947Z,111.20
2023-01-20T10:15:57.239Z,110.80
2023-01-20T10:18:49.311Z,115.10
2023-01-20T10:21:28.872Z,103.00
2023-01-20T10:24:07.476Z,111.70
2023-01-20T10:26:47.562Z,111.40
2023-01-20T10:29:27.442Z,99.90
2023-01-20T10:32:05.919Z,103.90
2023-01-20T10:34:47.912Z,96.00
2023-01-20T10:37:16.781Z,104.40
2023-01-20T10:40:14.475Z,110.40
2023-01-20T10:42:48.868Z,92.90
2023-01-20T10:45:32.396Z,86.50
2023-01-20T10:48:41.142Z,94.60
2023-01-20T10:51:13.528Z,96.20
2023-01-20T10:53:44.197Z,89.60
2023-01-20T10:56:34.237Z,88.00
2023-01-20T10:59:13.880Z,87.30
2023-01-20T11:04:38.126Z,79.20
2023-01-20T11:07:09.835Z,82.80
2023-01-20T11:09:38.034Z,85.20
2023-01-20T11:12:23.212Z,81.30
2023-01-20T11:14:53.844Z,82.80
2023-01-20T11:17:21.940Z,76.00
2023-01-20T11:19:53.419Z,69.30
2023-01-20T11:22:29.690Z,67.60
2023-01-20T11:25:04.123Z,68.00
2023-01-20T11:27:41.455Z,66.50
2023-01-20T11:30:32.077Z,61.60
2023-01-20T11:33:28.191Z,63.70
2023-01-20T11:36:01.913Z,68.40
2023-01-20T11:38:32.602Z,61.50
2023-01-20T11:41:00.573Z,62.20
2023-01-20T11:43:35.691Z,55.70
2023-01-20T11:46:20.077Z,56.60
2023-01-20T11:48:48.712Z,58.80
2023-01-20T11:51:25.425Z,59.10
2023-01-20T11:54:08.295Z,48.50
2023-01-20T11:56:41.986Z,50.90
2023-01-20T11:59:31.124Z,42.40
2023-01-20T12:02:09.767Z,47.70
2023-01-20T12:04:46.339Z,52.00
2023-01-20T12:07:18.870Z,52.90
2023-01-20T12:09:51.352Z,50.00
2023-01-20T12:12:48.324Z,55.10
2023-01-20T12:15:25.550Z,56.20
2023-01-20T12:18:00.990Z,49.20
2023-01-20T12:20:57.769Z,50.50
2023-01-20T12:24:20.989Z,55.50
2023-01-20T12:26:49.846Z,46.20
2023-01-20T12:29:26.037Z,49.70
2023-01-20T12:31:54.569Z,49.10
2023-01-20T12:34:29.749Z,43.20
2023-01-20T12:37:13.396Z,43.00
2023-01-20T12:39:41.453Z,39.30
2023-01-20T12:42:21.324Z,39.10
2023-01-20T12:45:18.248Z,40.50
2023-01-20T12:48:10.088Z,43.60
2023-01-20T12:51:05.994Z,39.70
2023-01-20T12:54:00.044Z,38.70
2023-01-20T12:56:50.529Z,43.20
2023-01-20T12:59:41.754Z,39.70
2023-01-20T13:02:43.165Z,35.30
2023-01-20T13:05:44.992Z,48.50
2023-01-20T13:08:28.837Z,42.00
2023-01-20T13:11:21.009Z,40.10
2023-01-20T13:14:07.553Z,36.60
2023-01-20T13:17:01.122Z,36.70
2023-01-20T13:19:33.230Z,37.80
2023-01-20T13:24:37.552Z,35.20
2023-01-20T13:27:06.102Z,33.30
2023-01-20T13:29:36.967Z,40.90
2023-01-20T13:32:35.260Z,37.60
2023-01-20T13:35:35.319Z,33.60
2023-01-20T13:38:03.567Z,41.90
2023-01-20T13:40:37.418Z,39.40
2023-01-20T13:43:28.215Z,42.30
2023-01-20T13:46:05.810Z,23.20
2023-01-20T13:48:36.221Z,33.80
2023-01-20T13:51:36.372Z,32.10
2023-01-20T13:54:23.176Z,34.10
2023-01-20T13:56:52.128Z,36.80
2023-01-20T13:59:19.957Z,33.20
2023-01-20T14:01:47.828Z,35.30
2023-01-20T14:04:18.953Z,29.10
2023-01-20T14:06:52.514Z,30.90
2023-01-20T14:09:26.138Z,34.60
2023-01-20T14:11:57.218Z,27.40
2023-01-20T14:14:26.756Z,27.30
2023-01-20T14:16:56.354Z,33.50
2023-01-20T14:19:27.593Z,34.50
2023-01-20T14:21:57.842Z,34.60
2023-01-20T14:24:38.064Z,33.40
2023-01-20T14:27:17.560Z,34.80
2023-01-20T14:29:47.092Z,35.70
2023-01-20T14:32:22.179Z,31.20
2023-01-20T14:34:52.094Z,32.40
2023-01-20T14:37:35.375Z,33.10
2023-01-20T14:40:31.469Z,30.90
2023-01-20T14:43:02.012Z,36.50
2023-01-20T14:45:32.389Z,27.00
2023-01-20T14:48:02.695Z,24.90
2023-01-20T14:50:31.300Z,28.20
2023-01-20T14:53:00.513Z,23.90
2023-01-20T14:55:35.642Z,24.60
2023-01-20T14:58:14.306Z,31.10
2023-01-20T15:01:00.668Z,29.60
2023-01-20T15:03:29.924Z,28.40
2023-01-20T15:06:14.990Z,25.60
2023-01-20T15:09:04.462Z,29.80
2023-01-20T15:11:34.546Z,33.50
2023-01-20T15:14:03.656Z,11.50
2023-01-20T15:16:44.191Z,31.70
2023-01-20T15:19:15.372Z,15.20
2023-01-20T15:21:56.452Z,17.50
2023-01-20T15:24:30.681Z,19.80
2023-01-20T15:27:01.409Z,20.40
2023-01-20T15:29:36.720Z,23.40
2023-01-20T15:32:12.569Z,24.20
2023-01-20T15:34:40.874Z,19.00
2023-01-20T15:37:21.359Z,19.60
2023-01-20T15:39:49.517Z,20.30
2023-01-20T15:42:18.961Z,27.80
2023-01-20T15:44:47.009Z,25.20
2023-01-20T15:47:26.107Z,24.00
2023-01-20T15:49:59.661Z,32.20
2023-01-20T15:52:27.507Z,28.20
2023-01-20T15:54:55.394Z,28.60
2023-01-20T15:57:23.515Z,28.80
2023-01-20T15:59:51.287Z,27.80
2023-01-20T16:02:21.011Z,29.70
2023-01-20T16:04:50.016Z,28.60
2023-01-20T16:07:20.496Z,28.50
2023-01-20T16:09:49.229Z,33.90
2023-01-20T16:12:18.518Z,32.90
2023-01-20T16:14:46.457Z,33.80
2023-01-20T16:17:17.183Z,32.90
2023-01-20T16:19:45.360Z,33.70
2023-01-20T16:22:14.133Z,21.70
2023-01-20T16:24:45.368Z,40.30
2023-01-20T16:27:22.833Z,39.70
2023-01-20T16:29:50.780Z,38.40
2023-01-20T16:32:22.391Z,25.50
2023-01-20T16:34:51.548Z,39.20
2023-01-20T16:37:19.319Z,36.20
2023-01-20T16:39:47.262Z,43.30
2023-01-20T16:42:16.041Z,39.10
2023-01-20T16:44:44.019Z,41.70
2023-01-20T16:47:12.207Z,27.10
2023-01-20T16:49:40.187Z,23.50
2023-01-20T16:52:08.301Z,31.70
2023-01-20T16:54:36.127Z,45.00
2023-01-20T16:57:04.078Z,37.30
2023-01-20T16:59:31.844Z,38.50
2023-01-20T17:01:59.680Z,37.40
2023-01-20T17:04:27.495Z,38.80
2023-01-20T17:06:55.538Z,25.50
2023-01-20T17:09:23.435Z,21.40
2023-01-20T17:11:51.368Z,22.40
2023-01-20T17:14:19.418Z,19.00
2023-01-20T17:16:47.348Z,28.20
2023-01-20T17:19:17.615Z,23.50
2023-01-20T17:21:45.588Z,19.20
2023-01-20T17:24:13.447Z,24.10
2023-01-20T17:26:41.493Z,10.40
2023-01-20T17:29:14.027Z,16.10
2023-01-20T17:31:42.954Z,21.30
2023-01-20T17:34:11.385Z,11.40
2023-01-20T17:36:39.291Z,16.40
2023-01-20T17:39:07.968Z,24.70
2023-01-20T17:41:36.768Z,25.50
2023-01-20T17:44:06.160Z,21.50
2023-01-20T17:46:34.053Z,9.80
2023-01-20T17:49:04.788Z,16.00
2023-01-20T17:51:41.303Z,28.50
2023-01-20T17:54:09.624Z,26.10
2023-01-20T17:56:37.617Z,23.10
2023-01-20T17:59:06.010Z,13.40
2023-01-20T18:01:34.094Z,14.60
2023-01-20T18:04:04.436Z,23.00
2023-01-20T18:06:35.105Z,24.10
2023-01-20T18:09:04.476Z,14.40
2023-01-20T18:11:36.111Z,21.30
2023-01-20T18:14:05.733Z,19.70
2023-01-20T18:16:39.679Z,25.70
2023-01-20T18:19:11.290Z,22.00
2023-01-20T18:21:41.168Z,20.30
2023-01-20T18:24:10.861Z,25.30
2023-01-20T18:26:40.565Z,23.50
2023-01-20T18:29:13.922Z,20.20
2023-01-20T18:31:43.019Z,19.80
2023-01-20T18:34:13.163Z,19.50
2023-01-20T18:36:46.012Z,10.90
2023-01-20T18:39:19.635Z,19.50
2023-01-20T18:41:48.826Z,13.70
2023-01-20T18:44:19.165Z,12.40
2023-01-20T18:46:47.367Z,18.10
2023-01-20T18:49:16.815Z,21.30
2023-01-20T18:54:47.040Z,20.20
2023-01-20T18:57:14.895Z,19.70
2023-01-20T18:59:43.346Z,21.50
2023-01-20T19:04:35.830Z,17.60
2023-01-20T19:07:03.847Z,17.40
2023-01-20T19:09:31.761Z,17.30
2023-01-20T19:11:59.735Z,23.20
2023-01-20T19:14:27.833Z,26.40
2023-01-20T19:16:55.935Z,15.30
2023-01-20T19:19:23.852Z,12.90
2023-01-20T19:21:52.709Z,21.40
2023-01-20T19:24:21.750Z,19.30
2023-01-20T19:26:50.108Z,18.30
2023-01-20T19:29:18.915Z,19.40
2023-01-20T19:31:47.637Z,18.50
2023-01-20T19:34:16.070Z,17.40
2023-01-20T19:36:44.164Z,18.80
2023-01-20T19:39:12.166Z,9.50
2023-01-20T19:41:41.057Z,11.30
2023-01-20T19:44:11.171Z,16.80
2023-01-20T19:46:45.815Z,12.70
2023-01-20T19:49:13.898Z,16.70
2023-01-20T19:51:41.842Z,11.70
2023-01-20T19:54:12.679Z,15.40
2023-01-20T19:56:41.319Z,16.10
2023-01-20T19:59:12.355Z,16.60
2023-01-20T20:01:40.440Z,14.00
2023-01-20T20:04:13.030Z,14.80
2023-01-20T20:06:48.471Z,15.30
2023-01-20T20:09:20.040Z,19.90
2023-01-20T20:11:48.423Z,17.60
2023-01-20T20:14:19.112Z,15.10
2023-01-20T20:16:48.388Z,16.80
2023-01-20T20:19:19.801Z,12.10
2023-01-20T20:21:47.888Z,16.90
2023-01-20T20:24:17.654Z,11.30
2023-01-20T20:26:46.856Z,9.70
2023-01-20T20:29:17.011Z,7.90
2023-01-20T20:31:45.374Z,14.00
2023-01-20T20:34:16.922Z,12.40
2023-01-20T20:36:45.449Z,9.40
2023-01-20T20:39:15.609Z,7.90
2023-01-20T20:42:24.146Z,10.80
2023-01-20T20:44:52.183Z,7.70
2023-01-20T20:47:20.462Z,9.60
2023-01-20T20:49:48.599Z,12.60
2023-01-20T20:52:16.520Z,8.70
2023-01-20T20:54:44.412Z,12.60
2023-01-20T20:57:12.500Z,8.20
2023-01-20T20:59:58.035Z,15.50
2023-01-20T21:02:26.827Z,15.10
2023-01-20T21:04:55.177Z,11.40
2023-01-20T21:07:25.320Z,16.90
2023-01-20T21:09:53.476Z,15.40
2023-01-20T21:12:21.517Z,12.00
2023-01-20T21:14:49.430Z,19.90
2023-01-20T21:17:17.656Z,13.80
2023-01-20T21:19:46.739Z,10.80
2023-01-20T21:22:14.848Z,13.00
2023-01-20T21:24:43.037Z,13.90
2023-01-20T21:27:11.103Z,11.00
2023-01-20T21:29:39.225Z,14.60
2023-01-20T21:32:07.367Z,16.60
2023-01-20T21:34:35.433Z,13.80
2023-01-20T21:37:18.452Z,12.20
2023-01-20T21:39:46.613Z,11.60
2023-01-20T21:42:15.272Z,12.60
2023-01-20T21:44:43.430Z,12.70
2023-01-20T21:47:11.663Z,14.50
2023-01-20T21:49:58.023Z,12.50
2023-01-20T21:52:41.480Z,6.60
2023-01-20T21:55:19.663Z,8.20
2023-01-20T21:57:51.144Z,5.20
2023-01-20T22:00:20.200Z,6.40
2023-01-20T22:02:53.989Z,5.40
2023-01-20T22:05:21.951Z,11.10
2023-01-20T22:07:50.014Z,8.60
2023-01-20T22:10:18.501Z,9.20
2023-01-20T22:12:46.914Z,10.10
2023-01-20T22:15:15.086Z,6.00
2023-01-20T22:17:43.575Z,7.10
2023-01-20T22:20:12.014Z,12.40
2023-01-20T22:22:40.017Z,10.10
2023-01-20T22:25:08.356Z,10.90
2023-01-20T22:27:36.385Z,10.50
2023-01-20T22:30:04.772Z,11.40
2023-01-20T22:32:32.721Z,6.30
2023-01-20T22:35:00.708Z,9.20
2023-01-20T22:37:31.293Z,14.00
2023-01-20T22:39:59.368Z,5.70
2023-01-20T22:42:27.376Z,7.60
2023-01-20T22:44:55.815Z,5.80
2023-01-20T22:47:23.829Z,8.00
2023-01-20T22:49:54.662Z,7.00
2023-01-20T22:52:26.062Z,10.60
2023-01-20T22:54:54.095Z,8.70
2023-01-20T22:57:22.064Z,12.50
2023-01-20T22:59:50.082Z,5.90
2023-01-20T23:02:18.035Z,11.50
2023-01-20T23:04:45.999Z,11.00
2023-01-20T23:07:14.380Z,8.40
2023-01-20T23:09:42.541Z,7.20
2023-01-20T23:12:10.832Z,10.10
2023-01-20T23:14:57.622Z,12.90
2023-01-20T23:17:30.917Z,9.80
2023-01-20T23:19:59.047Z,6.10
2023-01-20T23:22:27.054Z,13.10
2023-01-20T23:24:54.967Z,14.10
2023-01-20T23:27:42.848Z,11.20
2023-01-20T23:30:11.435Z,10.50
2023-01-20T23:32:39.493Z,11.20
2023-01-20T23:35:07.717Z,9.50
2023-01-20T23:37:35.727Z,13.80
2023-01-20T23:40:04.275Z,9.60
2023-01-20T23:42:32.212Z,8.60
2023-01-20T23:45:00.240Z,13.60
2023-01-20T23:47:28.213Z,11.80
2023-01-20T23:49:56.148Z,18.70
2023-01-20T23:52:26.002Z,14.70
2023-01-20T23:54:54.078Z,12.40
2023-01-20T23:57:22.260Z,12.30
2023-01-20T23:59:50.359Z,10.70
